Logan, Minnesota
Current Conditions -  °F | °C
As of 9:53 PM on Saturday 24 Jan 2015 (Local Time) from KAIT Reporting Station
Overcast Overcast  
Wind Chill: -5°   Ceiling: 1200
Heat Index:   Visibility: 10mi
Dew Point: -4°   Wind: 12mph
Humidity: 75%   Direction: 80°E
Pressure: 29.71"   Gusts: NA
Location:  46.7281°N, 93.6101°W
Report Text: KAIT 250353Z AUTO 08010KT 10SM OVC012 00/M04 A2971 RMK AO2
Loading
Personal Weather Stations






























Interactive Weather Map New forecast layout! Learn more

10-Day Weather Forecast

Advertisements
Track Severe Weather on mobile